| time (UTC) | temp F | wind direction | speed knots | gust knots | rain 1hr in | rain 24hr in | rain mn in | humidity % | barometer mb |
| 20260508220149 | 64 | 286 | 7.8 | 9.6 | 0.00 | 0.00 | 0.00 | 31 | 1007.2 |
| 20260508215646 | 64 | 286 | 3.5 | 5.2 | 0.00 | 0.00 | 0.00 | 33 | 1007.2 |
| 20260508215143 | 64 | 274 | 3.5 | 7.8 | 0.00 | 0.00 | 0.00 | 34 | 1007.2 |
| 20260508214640 | 64 | 296 | 7.8 | 11.3 | 0.00 | 0.00 | 0.00 | 32 | 1007.4 |
| 20260508214137 | 64 | 271 | 6.1 | 8.7 | 0.00 | 0.00 | 0.00 | 32 | 1007.3 |
| 20260508213633 | 62 | 270 | 3.5 | 6.1 | 0.00 | 0.00 | 0.00 | 33 | 1007.5 |
| 20260508213129 | 63 | 266 | 3.5 | 6.1 | 0.00 | 0.00 | 0.00 | 30 | 1007.3 |
| 20260508212626 | 64 | 265 | 4.3 | 5.2 | 0.00 | 0.00 | 0.00 | 32 | 1007.5 |
| 20260508212123 | 64 | 304 | 6.1 | 7.8 | 0.00 | 0.00 | 0.00 | 33 | 1007.4 |
| 20260508211618 | 63 | 285 | 3.5 | 5.2 | 0.00 | 0.00 | 0.00 | 35 | 1007.3 |
| 20260508211115 | 64 | 125 | 1.7 | 5.2 | 0.00 | 0.00 | 0.00 | 33 | 1007.5 |
| 20260508210611 | 64 | 278 | 7.0 | 7.8 | 0.00 | 0.00 | 0.00 | 31 | 1007.6 |
| 20260508210109 | 63 | 305 | 5.2 | 7.0 | 0.00 | 0.00 | 0.00 | 34 | 1007.6 |
| 20260508205606 | 63 | 282 | 3.5 | 5.2 | 0.00 | 0.00 | 0.00 | 34 | 1007.5 |
| 20260508205102 | 63 | 276 | 4.3 | 8.7 | 0.00 | 0.00 | 0.00 | 33 | 1007.5 |
| 20260508204559 | 64 | 263 | 7.0 | 8.7 | 0.00 | 0.00 | 0.00 | 33 | 1007.8 |
| 20260508204055 | 63 | 279 | 1.7 | 3.5 | 0.00 | 0.00 | 0.00 | 34 | 1007.6 |
| 20260508203551 | 62 | 305 | 0.9 | 2.6 | 0.00 | 0.00 | 0.00 | 34 | 1007.6 |
| 20260508203047 | 62 | 297 | 1.7 | 7.0 | 0.00 | 0.00 | 0.00 | 36 | 1007.9 |
| 20260508202544 | 63 | 263 | 7.0 | 9.6 | 0.00 | 0.00 | 0.00 | 33 | 1008.0 |
| 20260508202041 | 64 | 219 | 2.6 | 3.5 | 0.00 | 0.00 | 0.00 | 34 | 1008.1 |
| 20260508201538 | 64 | 303 | 1.7 | 7.0 | 0.00 | 0.00 | 0.00 | 35 | 1007.9 |
| 20260508201034 | 63 | 144 | 0.9 | 2.6 | 0.00 | 0.00 | 0.00 | 32 | 1008.1 |
| 20260508200531 | 62 | 258 | 3.5 | 7.8 | 0.00 | 0.00 | 0.00 | 33 | 1008.2 |
| 20260508200027 | 64 | 288 | 7.8 | 8.7 | 0.00 | 0.00 | 0.00 | 34 | 1008.5 |
| 20260508195524 | 63 | 266 | 5.2 | 6.1 | 0.00 | 0.00 | 0.00 | 33 | 1008.5 |
| 20260508195020 | 62 | 343 | 0.9 | 5.2 | 0.00 | 0.00 | 0.00 | 33 | 1008.5 |
| 20260508194517 | 62 | 296 | 5.2 | 7.0 | 0.00 | 0.00 | 0.00 | 29 | 1008.7 |
| 20260508194015 | 62 | 219 | 5.2 | 7.0 | 0.00 | 0.00 | 0.00 | 31 | 1008.8 |
| 20260508193510 | 62 | 223 | 7.0 | 8.7 | 0.00 | 0.00 | 0.00 | 31 | 1009.1 |
| 20260508193008 | 62 | 312 | 0.9 | 2.6 | 0.00 | 0.00 | 0.00 | 30 | 1008.8 |
| 20260508192504 | 62 | 42 | 3.5 | 7.0 | 0.00 | 0.00 | 0.00 | 32 | 1009.0 |
| 20260508192001 | 62 | 263 | 2.6 | 5.2 | 0.00 | 0.00 | 0.00 | 31 | 1009.3 |
| 20260508191458 | 63 | 330 | 1.7 | 2.6 | 0.00 | 0.00 | 0.00 | 34 | 1009.0 |
| 20260508190955 | 61 | 22 | 0.0 | 1.7 | 0.00 | 0.00 | 0.00 | 33 | 1009.2 |
| 20260508190452 | 60 | 300 | 2.6 | 3.5 | 0.00 | 0.00 | 0.00 | 32 | 1009.3 |
| 20260508185948 | 60 | 281 | 5.2 | 7.0 | 0.00 | 0.00 | 0.00 | 31 | 1009.5 |
| 20260508185446 | 60 | 206 | 0.9 | 6.1 | 0.00 | 0.00 | 0.00 | 34 | 1009.4 |
| 20260508184943 | 60 | 267 | 7.0 | 7.8 | 0.00 | 0.00 | 0.00 | 33 | 1009.6 |
| 20260508184441 | 60 | 164 | 0.9 | 3.5 | 0.00 | 0.00 | 0.00 | 32 | 1009.6 |
| 20260508183937 | 61 | 215 | 4.3 | 9.6 | 0.00 | 0.00 | 0.00 | 37 | 1009.5 |
| 20260508183433 | 61 | 279 | 2.6 | 3.5 | 0.00 | 0.00 | 0.00 | 34 | 1009.6 |
| 20260508182928 | 60 | 204 | 0.9 | 5.2 | 0.00 | 0.00 | 0.00 | 34 | 1009.8 |
| 20260508182426 | 60 | 320 | 2.6 | 3.5 | 0.00 | 0.00 | 0.00 | 34 | 1009.7 |
| 20260508181920 | 60 | 290 | 4.3 | 6.1 | 0.00 | 0.00 | 0.00 | 34 | 1009.8 |
| 20260508181418 | 60 | 290 | 2.6 | 5.2 | 0.00 | 0.00 | 0.00 | 34 | 1009.8 |
| 20260508180915 | 59 | 277 | 2.6 | 2.6 | 0.00 | 0.00 | 0.00 | 35 | 1009.8 |
| 20260508180412 | 59 | 260 | 2.6 | 5.2 | 0.00 | 0.00 | 0.00 | 32 | 1010.0 |
| 20260508175908 | 59 | 258 | 1.7 | 7.0 | 0.00 | 0.00 | 0.00 | 35 | 1010.0 |
| 20260508175404 | 59 | 337 | 1.7 | 3.5 | 0.00 | 0.00 | 0.00 | 35 | 1010.1 |
| 20260508174903 | 59 | 273 | 5.2 | 7.8 | 0.00 | 0.00 | 0.00 | 34 | 1010.4 |
| 20260508174359 | 59 | 251 | 3.5 | 7.8 | 0.00 | 0.00 | 0.00 | 35 | 1010.2 |
| 20260508173856 | 59 | 276 | 4.3 | 8.7 | 0.00 | 0.00 | 0.00 | 34 | 1010.6 |
| 20260508173353 | 59 | 326 | 1.7 | 5.2 | 0.00 | 0.00 | 0.00 | 38 | 1010.4 |
| 20260508172849 | 58 | 290 | 4.3 | 6.1 | 0.00 | 0.00 | 0.00 | 35 | 1010.8 |
| 20260508172347 | 58 | 274 | 4.3 | 5.2 | 0.00 | 0.00 | 0.00 | 35 | 1010.7 |
| 20260508171842 | 58 | 245 | 4.3 | 6.1 | 0.00 | 0.00 | 0.00 | 37 | 1010.7 |
| 20260508171339 | 58 | 281 | 3.5 | 3.5 | 0.00 | 0.00 | 0.00 | 36 | 1011.1 |
| 20260508170836 | 57 | 274 | 3.5 | 6.1 | 0.00 | 0.00 | 0.00 | 34 | 1010.7 |
| 20260508170334 | 57 | 305 | 5.2 | 6.1 | 0.00 | 0.00 | 0.00 | 35 | 1010.9 |
| 20260508165830 | 57 | 282 | 7.8 | 12.2 | 0.00 | 0.00 | 0.00 | 35 | 1010.9 |
| 20260508165328 | 57 | 331 | 1.7 | 7.0 | 0.00 | 0.00 | 0.00 | 35 | 1010.9 |
| 20260508164823 | 57 | 280 | 5.2 | 6.1 | 0.00 | 0.00 | 0.00 | 37 | 1011.0 |
| 20260508164320 | 57 | 317 | 3.5 | 3.5 | 0.00 | 0.00 | 0.00 | 38 | 1011.1 |
| 20260508163819 | 57 | 316 | 1.7 | 5.2 | 0.00 | 0.00 | 0.00 | 37 | 1011.0 |
| 20260508163316 | 56 | 235 | 4.3 | 7.0 | 0.00 | 0.00 | 0.00 | 39 | 1011.3 |
| 20260508162811 | 56 | 277 | 7.8 | 8.7 | 0.00 | 0.00 | 0.00 | 36 | 1011.3 |
| 20260508162308 | 56 | 313 | 1.7 | 2.6 | 0.00 | 0.00 | 0.00 | 38 | 1011.3 |
| 20260508161806 | 57 | 269 | 5.2 | 7.8 | 0.00 | 0.00 | 0.00 | 35 | 1011.6 |
| 20260508161303 | 57 | 296 | 3.5 | 3.5 | 0.00 | 0.00 | 0.00 | 39 | 1011.4 |
| 20260508160800 | 56 | 307 | 2.6 | 3.5 | 0.00 | 0.00 | 0.00 | 40 | 1011.5 |
| 20260508160259 | 55 | 277 | 4.3 | 6.1 | 0.00 | 0.00 | 0.00 | 39 | 1011.6 |
| 20260508155755 | 55 | 309 | 7.0 | 7.8 | 0.00 | 0.00 | 0.00 | 39 | 1011.6 |
| 20260508155252 | 56 | 298 | 1.7 | 7.8 | 0.00 | 0.00 | 0.00 | 40 | 1011.8 |
| 20260508154748 | 56 | 292 | 5.2 | 7.0 | 0.00 | 0.00 | 0.00 | 42 | 1011.5 |
| 20260508154246 | 56 | 283 | 2.6 | 3.5 | 0.00 | 0.00 | 0.00 | 41 | 1011.7 |
| 20260508153742 | 55 | 343 | 0.9 | 3.5 | 0.00 | 0.00 | 0.00 | 42 | 1011.6 |
| 20260508153240 | 55 | 253 | 5.2 | 5.2 | 0.00 | 0.00 | 0.00 | 42 | 1011.9 |
| 20260508152736 | 55 | 330 | 3.5 | 5.2 | 0.00 | 0.00 | 0.00 | 43 | 1011.6 |
| 20260508152232 | 55 | 247 | 1.7 | 2.6 | 0.00 | 0.00 | 0.00 | 47 | 1011.8 |
| 20260508151728 | 55 | 341 | 0.9 | 1.7 | 0.00 | 0.00 | 0.00 | 47 | 1011.8 |
| 20260508151226 | 54 | 21 | 1.7 | 1.7 | 0.00 | 0.00 | 0.00 | 47 | 1011.9 |
| 20260508150722 | 53 | 351 | 0.0 | 0.9 | 0.00 | 0.00 | 0.00 | 51 | 1011.9 |
| 20260508150219 | 53 | 0 | 0.0 | 1.7 | 0.00 | 0.00 | 0.00 | 48 | 1012.1 |
| 20260508145715 | 52 | 302 | 0.9 | 3.5 | 0.00 | 0.00 | 0.00 | 50 | 1012.2 |
| 20260508145211 | 53 | 321 | 0.9 | 2.6 | 0.00 | 0.00 | 0.00 | 52 | 1012.2 |
| 20260508144709 | 53 | 7 | 0.9 | 0.9 | 0.00 | 0.00 | 0.00 | 52 | 1012.2 |
| 20260508144207 | 52 | 359 | 0.9 | 1.7 | 0.00 | 0.00 | 0.00 | 52 | 1012.4 |
| 20260508143704 | 52 | 354 | 0.9 | 2.6 | 0.00 | 0.00 | 0.00 | 54 | 1012.4 |
| 20260508143201 | 52 | 330 | 0.0 | 1.7 | 0.00 | 0.00 | 0.00 | 56 | 1012.6 |
| 20260508142656 | 52 | 347 | 0.9 | 1.7 | 0.00 | 0.00 | 0.00 | 53 | 1012.5 |
| 20260508142154 | 51 | 326 | 0.0 | 0.9 | 0.00 | 0.00 | 0.00 | 56 | 1012.5 |
| 20260508141650 | 51 | 320 | 1.7 | 1.7 | 0.00 | 0.00 | 0.00 | 58 | 1012.3 |
| 20260508141148 | 51 | 329 | 0.9 | 1.7 | 0.00 | 0.00 | 0.00 | 60 | 1012.4 |
| 20260508140645 | 50 | 293 | 1.7 | 1.7 | 0.00 | 0.00 | 0.00 | 59 | 1012.5 |
| 20260508140142 | 50 | 278 | 1.7 | 2.6 | 0.00 | 0.00 | 0.00 | 60 | 1012.6 |
| 20260508135637 | 50 | 283 | 1.7 | 1.7 | 0.00 | 0.00 | 0.00 | 66 | 1012.5 |
| 20260508135133 | 50 | 171 | 0.9 | 1.7 | 0.00 | 0.00 | 0.00 | 71 | 1012.6 |
| 20260508134630 | 51 | 168 | 1.7 | 1.7 | 0.00 | 0.00 | 0.00 | 72 | 1012.5 |
| 20260508134127 | 51 | 142 | 0.0 | 0.9 | 0.00 | 0.00 | 0.00 | 72 | 1012.8 |
| 20260508133624 | 51 | 142 | 1.7 | 1.7 | 0.00 | 0.00 | 0.00 | 69 | 1012.8 |
| 20260508133121 | 50 | 143 | 0.0 | 0.0 | 0.00 | 0.00 | 0.00 | 70 | 1012.7 |
| 20260508132619 | 49 | 143 | 0.0 | 0.9 | 0.00 | 0.00 | 0.00 | 77 | 1012.8 |
| 20260508132115 | 50 | 133 | 0.0 | 0.9 | 0.00 | 0.00 | 0.00 | 74 | 1012.6 |
| 20260508131611 | 50 | 62 | 0.0 | 0.9 | 0.00 | 0.00 | 0.00 | 76 | 1012.5 |
| 20260508131108 | 49 | 62 | 0.0 | 1.7 | 0.00 | 0.00 | 0.00 | 77 | 1012.5 |
| 20260508130605 | 48 | 33 | 0.0 | 0.9 | 0.00 | 0.00 | 0.00 | 81 | 1012.7 |
| 20260508125557 | 47 | 122 | 1.7 | 2.6 | 0.00 | 0.00 | 0.00 | 83 | 1012.5 |
| 20260508125055 | 46 | 76 | 1.7 | 1.7 | 0.00 | 0.00 | 0.00 | 86 | 1012.5 |
| 20260508124553 | 45 | 100 | 1.7 | 2.6 | 0.00 | 0.00 | 0.00 | 85 | 1012.7 |
| 20260508124049 | 45 | 84 | 0.9 | 2.6 | 0.00 | 0.00 | 0.00 | 87 | 1012.5 |
| 20260508123548 | 46 | 77 | 0.9 | 1.7 | 0.00 | 0.00 | 0.00 | 86 | 1012.4 |
| 20260508123044 | 45 | 51 | 0.0 | 0.0 | 0.00 | 0.00 | 0.00 | 90 | 1012.4 |
| 20260508122541 | 45 | 58 | 0.9 | 0.9 | 0.00 | 0.00 | 0.00 | 90 | 1012.2 |
| 20260508122038 | 44 | 60 | 0.0 | 0.9 | 0.00 | 0.00 | 0.00 | 92 | 1012.4 |
| 20260508121537 | 43 | 87 | 0.9 | 1.7 | 0.00 | 0.00 | 0.00 | 93 | 1012.2 |
| 20260508121034 | 43 | 66 | 0.0 | 0.9 | 0.00 | 0.00 | 0.00 | 94 | 1012.3 |
| 20260508120531 | 42 | 60 | 0.0 | 0.0 | 0.00 | 0.00 | 0.00 | 96 | 1012.3 |
| 20260508120030 | 42 | 60 | 0.0 | 0.0 | 0.00 | 0.00 | 0.00 | 96 | 1012.2 |
| 20260508115527 | 42 | 59 | 0.0 | 0.0 | 0.00 | 0.00 | 0.00 | 98 | 1012.1 |
| 20260508115023 | 41 | 61 | 0.0 | 0.0 | 0.00 | 0.00 | 0.00 | 98 | 1012.2 |
| 20260508114520 | 41 | 61 | 0.0 | 0.0 | 0.00 | 0.00 | 0.00 | 97 | 1012.2 |
| 20260508114016 | 41 | 62 | 0.0 | 0.0 | 0.00 | 0.00 | 0.00 | 98 | 1011.9 |
| 20260508113514 | 40 | 61 | 0.0 | 0.9 | 0.00 | 0.00 | 0.00 | 98 | 1011.8 |
| 20260508113012 | 40 | 56 | 0.0 | 0.0 | 0.00 | 0.00 | 0.00 | 98 | 1011.8 |
| 20260508112508 | 39 | 55 | 0.0 | 0.0 | 0.00 | 0.00 | 0.00 | 98 | 1011.8 |
| 20260508112005 | 38 | 56 | 0.0 | 0.0 | 0.00 | 0.00 | 0.00 | 98 | 1011.7 |
| 20260508111502 | 38 | 56 | 0.0 | 0.0 | 0.00 | 0.00 | 0.00 | 98 | 1011.5 |
| 20260508110959 | 38 | 56 | 0.0 | 0.0 | 0.00 | 0.00 | 0.00 | 98 | 1011.6 |
| 20260508110457 | 38 | 58 | 0.0 | 0.0 | 0.00 | 0.00 | 0.00 | 98 | 1011.6 |
| 20260508105956 | 38 | 58 | 0.0 | 0.0 | 0.00 | 0.00 | 0.00 | 98 | 1011.6 |
| 20260508105453 | 37 | 58 | 0.0 | 0.0 | 0.00 | 0.00 | 0.00 | 98 | 1011.6 |
| 20260508104950 | 37 | 58 | 0.0 | 0.0 | 0.00 | 0.00 | 0.00 | 98 | 1011.6 |
| 20260508104447 | 37 | 58 | 0.0 | 0.0 | 0.00 | 0.00 | 0.00 | 97 | 1011.4 |
| 20260508103944 | 37 | 58 | 0.0 | 0.0 | 0.00 | 0.00 | 0.00 | 97 | 1011.5 |
| 20260508103441 | 37 | 58 | 0.0 | 0.0 | 0.00 | 0.00 | 0.00 | 97 | 1011.5 |
| 20260508102938 | 37 | 58 | 0.0 | 0.0 | 0.00 | 0.00 | 0.00 | 97 | 1011.6 |
| 20260508102437 | 37 | 58 | 0.0 | 0.0 | 0.00 | 0.00 | 0.00 | 97 | 1011.5 |
| 20260508101933 | 37 | 58 | 0.0 | 0.0 | 0.00 | 0.00 | 0.00 | 97 | 1011.4 |
| 20260508101431 | 37 | 58 | 0.0 | 0.0 | 0.00 | 0.00 | 0.00 | 97 | 1011.6 |
| 20260508100928 | 37 | 58 | 0.0 | 0.0 | 0.00 | 0.00 | 0.00 | 97 | 1011.6 |
| 20260508100426 | 37 | 58 | 0.0 | 0.0 | 0.00 | 0.00 | 0.00 | 97 | 1011.6 |
| 20260508095922 | 37 | 58 | 0.0 | 0.0 | 0.00 | 0.00 | 0.00 | 97 | 1011.6 |
| 20260508095420 | 37 | 58 | 0.0 | 0.0 | 0.00 | 0.00 | 0.00 | 97 | 1011.5 |
| 20260508094916 | 37 | 58 | 0.0 | 0.0 | 0.00 | 0.00 | 0.00 | 97 | 1011.6 |
| 20260508094413 | 37 | 58 | 0.0 | 0.0 | 0.00 | 0.00 | 0.00 | 97 | 1011.4 |
| 20260508093910 | 37 | 58 | 0.0 | 0.0 | 0.00 | 0.00 | 0.00 | 97 | 1011.6 |
| 20260508093408 | 38 | 58 | 0.0 | 0.0 | 0.00 | 0.00 | 0.00 | 97 | 1011.5 |
| 20260508092905 | 38 | 58 | 0.0 | 0.0 | 0.00 | 0.00 | 0.00 | 97 | 1011.5 |
| 20260508092403 | 38 | 58 | 0.0 | 0.0 | 0.00 | 0.00 | 0.00 | 97 | 1011.5 |
| 20260508091901 | 38 | 58 | 0.0 | 0.0 | 0.00 | 0.00 | 0.00 | 97 | 1011.6 |
| 20260508091357 | 38 | 58 | 0.0 | 0.0 | 0.00 | 0.00 | 0.00 | 97 | 1011.6 |
| 20260508090855 | 38 | 58 | 0.0 | 0.0 | 0.00 | 0.00 | 0.00 | 97 | 1011.8 |
| 20260508090353 | 39 | 58 | 0.0 | 0.0 | 0.00 | 0.00 | 0.00 | 97 | 1011.7 |
| 20260508085848 | 39 | 58 | 0.0 | 0.0 | 0.00 | 0.00 | 0.00 | 97 | 1011.8 |
| 20260508085345 | 39 | 58 | 0.0 | 0.0 | 0.00 | 0.00 | 0.00 | 97 | 1011.9 |
| 20260508084842 | 39 | 58 | 0.0 | 0.0 | 0.00 | 0.00 | 0.00 | 97 | 1011.6 |
| 20260508084339 | 39 | 58 | 0.0 | 0.0 | 0.00 | 0.00 | 0.00 | 97 | 1011.6 |
| 20260508083837 | 39 | 58 | 0.0 | 0.0 | 0.00 | 0.00 | 0.00 | 97 | 1011.7 |
| 20260508083334 | 39 | 58 | 0.0 | 0.0 | 0.00 | 0.00 | 0.00 | 97 | 1011.6 |
| 20260508082833 | 39 | 58 | 0.0 | 0.0 | 0.00 | 0.00 | 0.00 | 97 | 1011.6 |
| 20260508082331 | 39 | 58 | 0.0 | 0.0 | 0.00 | 0.00 | 0.00 | 97 | 1011.6 |
| 20260508081828 | 39 | 58 | 0.0 | 0.0 | 0.00 | 0.00 | 0.00 | 97 | 1011.6 |
| 20260508081325 | 39 | 58 | 0.0 | 0.0 | 0.00 | 0.00 | 0.00 | 97 | 1011.8 |
| 20260508080823 | 39 | 58 | 0.0 | 0.0 | 0.00 | 0.00 | 0.00 | 97 | 1011.8 |
| 20260508080320 | 39 | 58 | 0.0 | 0.0 | 0.00 | 0.00 | 0.00 | 96 | 1011.9 |
| 20260508075817 | 40 | 58 | 0.0 | 0.0 | 0.00 | 0.00 | 0.00 | 96 | 1011.7 |
| 20260508075313 | 40 | 58 | 0.0 | 0.0 | 0.00 | 0.00 | 0.00 | 96 | 1011.8 |
| 20260508074811 | 40 | 58 | 0.0 | 0.0 | 0.00 | 0.00 | 0.00 | 96 | 1011.8 |
| 20260508074308 | 40 | 58 | 0.0 | 0.0 | 0.00 | 0.00 | 0.00 | 96 | 1011.9 |
| 20260508073805 | 40 | 58 | 0.0 | 0.0 | 0.00 | 0.00 | 0.00 | 96 | 1011.7 |
| 20260508073303 | 41 | 58 | 0.0 | 0.0 | 0.00 | 0.00 | 0.00 | 96 | 1011.7 |
| 20260508072759 | 41 | 58 | 0.0 | 0.0 | 0.00 | 0.00 | 0.00 | 96 | 1011.7 |
| 20260508072256 | 41 | 58 | 0.0 | 0.0 | 0.00 | 0.00 | 0.00 | 96 | 1011.6 |
| 20260508071753 | 41 | 58 | 0.0 | 0.0 | 0.00 | 0.00 | 0.00 | 96 | 1011.7 |
| 20260508071252 | 42 | 58 | 0.0 | 0.0 | 0.00 | 0.00 | 0.00 | 96 | 1011.7 |
| 20260508070749 | 42 | 58 | 0.0 | 0.0 | 0.00 | 0.00 | 0.00 | 96 | 1011.8 |
| 20260508070247 | 42 | 57 | 0.0 | 0.0 | 0.00 | 0.00 | 0.00 | 96 | 1011.8 |
| 20260508065744 | 42 | 58 | 0.0 | 0.0 | 0.00 | 0.00 | 0.00 | 96 | 1012.1 |
| 20260508065242 | 41 | 58 | 0.0 | 0.0 | 0.00 | 0.00 | 0.00 | 96 | 1011.8 |
| 20260508064740 | 41 | 58 | 0.0 | 0.0 | 0.00 | 0.00 | 0.00 | 96 | 1012.1 |
| 20260508064238 | 41 | 58 | 0.0 | 0.0 | 0.00 | 0.00 | 0.00 | 96 | 1012.1 |
| 20260508063735 | 41 | 58 | 0.0 | 0.0 | 0.00 | 0.00 | 0.00 | 96 | 1012.1 |
| 20260508063233 | 41 | 58 | 0.0 | 0.0 | 0.00 | 0.00 | 0.00 | 96 | 1012.1 |
| 20260508062730 | 41 | 58 | 0.0 | 0.0 | 0.00 | 0.00 | 0.00 | 95 | 1012.1 |
| 20260508062227 | 41 | 58 | 0.0 | 0.0 | 0.00 | 0.00 | 0.00 | 95 | 1011.9 |
| 20260508061724 | 41 | 58 | 0.0 | 0.0 | 0.00 | 0.00 | 0.00 | 95 | 1011.9 |
| 20260508061221 | 41 | 58 | 0.0 | 0.0 | 0.00 | 0.00 | 0.00 | 95 | 1012.2 |
| 20260508060717 | 42 | 58 | 0.0 | 0.0 | 0.00 | 0.00 | 0.00 | 95 | 1011.9 |
| 20260508060215 | 42 | 58 | 0.0 | 0.0 | 0.00 | 0.00 | 0.00 | 95 | 1012.4 |
| 20260508055710 | 42 | 58 | 0.0 | 0.0 | 0.00 | 0.00 | 0.00 | 95 | 1011.9 |
| 20260508055208 | 42 | 58 | 0.0 | 0.0 | 0.00 | 0.00 | 0.00 | 95 | 1012.2 |
| 20260508054704 | 42 | 58 | 0.0 | 0.0 | 0.00 | 0.00 | 0.00 | 95 | 1012.3 |
| 20260508054202 | 42 | 58 | 0.0 | 0.0 | 0.00 | 0.00 | 0.00 | 95 | 1012.3 |
| 20260508053658 | 42 | 58 | 0.0 | 0.0 | 0.00 | 0.00 | 0.00 | 95 | 1012.3 |
| 20260508053156 | 42 | 58 | 0.0 | 0.0 | 0.00 | 0.00 | 0.00 | 95 | 1012.3 |
| 20260508052653 | 41 | 58 | 0.0 | 0.0 | 0.00 | 0.00 | 0.00 | 94 | 1012.4 |
| 20260508052150 | 41 | 59 | 0.0 | 0.0 | 0.00 | 0.00 | 0.00 | 94 | 1012.3 |
| 20260508051646 | 41 | 59 | 0.0 | 0.0 | 0.00 | 0.00 | 0.00 | 94 | 1012.2 |
| 20260508051142 | 41 | 59 | 0.0 | 0.0 | 0.00 | 0.00 | 0.00 | 94 | 1012.1 |
| 20260508050638 | 41 | 59 | 0.0 | 0.0 | 0.00 | 0.00 | 0.00 | 94 | 1012.3 |
| 20260508050136 | 41 | 59 | 0.0 | 0.0 | 0.00 | 0.00 | 0.00 | 93 | 1012.2 |
| 20260508045631 | 41 | 60 | 0.0 | 0.0 | 0.00 | 0.00 | 0.00 | 93 | 1012.3 |
| 20260508045130 | 41 | 60 | 0.0 | 0.0 | 0.00 | 0.00 | 0.00 | 93 | 1012.1 |
| 20260508044626 | 41 | 60 | 0.0 | 0.0 | 0.00 | 0.00 | 0.00 | 93 | 1012.1 |
| 20260508044123 | 42 | 60 | 0.0 | 0.0 | 0.00 | 0.00 | 0.00 | 93 | 1012.2 |
| 20260508043619 | 42 | 70 | 0.0 | 0.9 | 0.00 | 0.00 | 0.00 | 93 | 1012.2 |
| 20260508043117 | 42 | 90 | 1.7 | 1.7 | 0.00 | 0.00 | 0.00 | 92 | 1012.1 |
| 20260508042614 | 42 | 48 | 0.0 | 0.0 | 0.00 | 0.00 | 0.00 | 92 | 1012.2 |
| 20260508042111 | 42 | 82 | 1.7 | 1.7 | 0.00 | 0.00 | 0.00 | 92 | 1012.1 |
| 20260508041607 | 42 | 47 | 0.0 | 0.0 | 0.00 | 0.00 | 0.00 | 92 | 1012.3 |
| 20260508041103 | 42 | 70 | 0.0 | 0.0 | 0.00 | 0.00 | 0.00 | 91 | 1012.1 |
| 20260508040600 | 42 | 74 | 0.0 | 0.0 | 0.00 | 0.00 | 0.00 | 91 | 1012.2 |
| 20260508040058 | 42 | 64 | 0.0 | 0.0 | 0.00 | 0.00 | 0.00 | 90 | 1012.3 |
| 20260508035555 | 42 | 65 | 0.0 | 0.0 | 0.00 | 0.07 | 0.07 | 90 | 1012.1 |
| 20260508035052 | 42 | 20 | 0.0 | 0.0 | 0.05 | 0.07 | 0.07 | 89 | 1012.3 |
| 20260508034549 | 42 | 61 | 0.9 | 0.9 | 0.12 | 0.07 | 0.07 | 87 | 1012.2 |
| 20260508034046 | 43 | 59 | 0.9 | 1.7 | 0.12 | 0.06 | 0.06 | 84 | 1012.4 |
| 20260508033544 | 44 | 10 | 0.0 | 1.7 | 0.24 | 0.05 | 0.05 | 80 | 1012.6 |
| 20260508033042 | 44 | 311 | 2.6 | 5.2 | 0.26 | 0.04 | 0.04 | 76 | 1012.5 |
| 20260508032538 | 46 | 289 | 2.6 | 5.2 | 0.07 | 0.01 | 0.01 | 72 | 1012.3 |
| 20260508032036 | 48 | 285 | 6.1 | 7.8 | 0.00 | 0.00 | 0.00 | 64 | 1012.5 |
| 20260508031533 | 48 | 347 | 1.7 | 3.5 | 0.00 | 0.00 | 0.00 | 60 | 1012.4 |
| 20260508031028 | 48 | 343 | 1.7 | 1.7 | 0.00 | 0.00 | 0.00 | 62 | 1012.3 |
| 20260508030525 | 48 | 49 | 0.0 | 0.0 | 0.00 | 0.00 | 0.00 | 59 | 1011.9 |
| 20260508030024 | 48 | 50 | 0.0 | 0.9 | 0.00 | 0.00 | 0.00 | 57 | 1012.1 |
| 20260508025519 | 48 | 50 | 0.9 | 1.7 | 0.00 | 0.00 | 0.00 | 57 | 1011.9 |
| 20260508025016 | 48 | 10 | 0.9 | 0.9 | 0.00 | 0.00 | 0.00 | 57 | 1012.2 |
| 20260508024512 | 48 | 8 | 0.0 | 0.0 | 0.00 | 0.00 | 0.00 | 56 | 1012.3 |
| 20260508024009 | 48 | 8 | 0.0 | 0.0 | 0.00 | 0.00 | 0.00 | 56 | 1012.2 |
| 20260508023506 | 48 | 8 | 0.0 | 0.0 | 0.00 | 0.00 | 0.00 | 54 | 1012.2 |
| 20260508023003 | 48 | 8 | 0.0 | 0.0 | 0.00 | 0.00 | 0.00 | 55 | 1012.2 |
| 20260508022459 | 49 | 8 | 0.0 | 0.0 | 0.00 | 0.00 | 0.00 | 55 | 1012.3 |
| 20260508021955 | 49 | 8 | 0.0 | 0.0 | 0.00 | 0.00 | 0.00 | 54 | 1012.3 |
| 20260508021452 | 49 | 7 | 0.0 | 0.0 | 0.00 | 0.00 | 0.00 | 55 | 1012.3 |
| 20260508020948 | 49 | 21 | 0.9 | 1.7 | 0.00 | 0.00 | 0.00 | 52 | 1012.1 |
| 20260508020446 | 49 | 359 | 0.9 | 1.7 | 0.00 | 0.00 | 0.00 | 52 | 1012.1 |
| 20260508015942 | 50 | 13 | 1.7 | 1.7 | 0.00 | 0.00 | 0.00 | 50 | 1011.8 |
| 20260508015440 | 50 | 329 | 2.6 | 3.5 | 0.00 | 0.00 | 0.00 | 49 | 1012.2 |
| 20260508014937 | 51 | 290 | 1.7 | 3.5 | 0.00 | 0.00 | 0.00 | 48 | 1012.1 |
| 20260508014434 | 51 | 304 | 2.6 | 3.5 | 0.00 | 0.00 | 0.00 | 48 | 1012.1 |
| 20260508013929 | 50 | 292 | 7.0 | 9.6 | 0.00 | 0.00 | 0.00 | 47 | 1011.8 |
| 20260508013426 | 50 | 292 | 2.6 | 2.6 | 0.00 | 0.00 | 0.00 | 51 | 1011.9 |
| 20260508012923 | 50 | 303 | 0.0 | 0.9 | 0.00 | 0.00 | 0.00 | 50 | 1011.8 |
| 20260508012420 | 50 | 303 | 0.9 | 0.9 | 0.00 | 0.00 | 0.00 | 48 | 1011.9 |
| 20260508011918 | 50 | 303 | 0.0 | 0.9 | 0.00 | 0.00 | 0.00 | 49 | 1011.7 |
| 20260508011416 | 50 | 303 | 0.9 | 0.9 | 0.00 | 0.00 | 0.00 | 48 | 1011.8 |
| 20260508010912 | 50 | 303 | 0.9 | 1.7 | 0.00 | 0.00 | 0.00 | 47 | 1011.7 |
| 20260508010410 | 50 | 303 | 1.7 | 1.7 | 0.00 | 0.00 | 0.00 | 47 | 1011.5 |
| 20260508005907 | 50 | 304 | 0.9 | 1.7 | 0.00 | 0.00 | 0.00 | 46 | 1011.5 |
| 20260508005403 | 51 | 304 | 0.9 | 0.9 | 0.00 | 0.00 | 0.00 | 47 | 1011.7 |
| 20260508004900 | 51 | 297 | 1.7 | 2.6 | 0.00 | 0.00 | 0.00 | 45 | 1011.4 |
| 20260508004356 | 51 | 293 | 1.7 | 2.6 | 0.00 | 0.00 | 0.00 | 45 | 1011.6 |
| 20260508003853 | 51 | 302 | 2.6 | 5.2 | 0.00 | 0.00 | 0.00 | 44 | 1011.5 |
| 20260508003349 | 51 | 296 | 3.5 | 3.5 | 0.00 | 0.00 | 0.00 | 45 | 1011.6 |
| 20260508002847 | 51 | 256 | 3.5 | 7.0 | 0.00 | 0.00 | 0.00 | 44 | 1011.4 |
| 20260508002343 | 52 | 264 | 5.2 | 15.6 | 0.00 | 0.00 | 0.00 | 46 | 1011.6 |
| 20260508001840 | 52 | 294 | 2.6 | 3.5 | 0.00 | 0.00 | 0.00 | 43 | 1011.5 |
| 20260508001336 | 52 | 292 | 3.5 | 6.1 | 0.00 | 0.00 | 0.00 | 42 | 1011.5 |
| 20260508000832 | 52 | 276 | 3.5 | 3.5 | 0.00 | 0.00 | 0.00 | 43 | 1011.2 |
| 20260508000328 | 52 | 300 | 2.6 | 5.2 | 0.00 | 0.00 | 0.00 | 42 | 1011.3 |
| 20260507235825 | 52 | 295 | 1.7 | 5.2 | 0.00 | 0.00 | 0.00 | 41 | 1011.2 |
| 20260507235323 | 52 | 287 | 4.3 | 5.2 | 0.00 | 0.00 | 0.00 | 42 | 1011.1 |
| 20260507234820 | 52 | 268 | 2.6 | 5.2 | 0.00 | 0.00 | 0.00 | 43 | 1011.4 |
| 20260507234316 | 52 | 310 | 3.5 | 5.2 | 0.00 | 0.00 | 0.00 | 41 | 1011.2 |
| 20260507233812 | 52 | 311 | 1.7 | 2.6 | 0.00 | 0.00 | 0.00 | 42 | 1011.4 |
| 20260507233310 | 53 | 300 | 3.5 | 5.2 | 0.00 | 0.00 | 0.00 | 42 | 1011.3 |
| 20260507232809 | 53 | 280 | 3.5 | 7.8 | 0.00 | 0.00 | 0.00 | 40 | 1011.4 |
| 20260507232306 | 53 | 280 | 4.3 | 8.7 | 0.00 | 0.00 | 0.00 | 41 | 1011.5 |
| 20260507231801 | 53 | 277 | 7.8 | 12.2 | 0.00 | 0.00 | 0.00 | 41 | 1011.5 |
| 20260507231258 | 54 | 285 | 4.3 | 7.8 | 0.00 | 0.00 | 0.00 | 40 | 1011.5 |
| 20260507230754 | 53 | 260 | 4.3 | 6.1 | 0.00 | 0.00 | 0.00 | 40 | 1011.5 |
| 20260507230252 | 53 | 304 | 6.1 | 7.0 | 0.00 | 0.00 | 0.00 | 40 | 1011.4 |
| 20260507225752 | 53 | 288 | 6.1 | 8.7 | 0.00 | 0.00 | 0.00 | 39 | 1011.5 |
| 20260507225248 | 53 | 251 | 7.8 | 9.6 | 0.00 | 0.00 | 0.00 | 40 | 1011.5 |
| 20260507224744 | 53 | 250 | 6.1 | 13.0 | 0.00 | 0.00 | 0.00 | 41 | 1011.6 |
| 20260507224241 | 53 | 276 | 7.8 | 12.2 | 0.00 | 0.00 | 0.00 | 39 | 1011.5 |
| 20260507223737 | 54 | 269 | 6.1 | 7.0 | 0.00 | 0.00 | 0.00 | 40 | 1011.6 |
| 20260507223234 | 54 | 288 | 3.5 | 7.8 | 0.00 | 0.00 | 0.00 | 41 | 1011.6 |
| 20260507222731 | 53 | 278 | 3.5 | 5.2 | 0.00 | 0.00 | 0.00 | 41 | 1011.7 |
| 20260507222227 | 53 | 297 | 6.1 | 7.8 | 0.00 | 0.00 | 0.00 | 40 | 1011.6 |
| 20260507221724 | 53 | 288 | 7.8 | 9.6 | 0.00 | 0.00 | 0.00 | 40 | 1011.5 |
| 20260507221220 | 53 | 299 | 6.1 | 8.7 | 0.00 | 0.00 | 0.00 | 40 | 1011.7 |
| 20260507220717 | 53 | 272 | 5.2 | 9.6 | 0.00 | 0.00 | 0.00 | 40 | 1011.6 |